Imperial Beach, California
Current Conditions -  °F | °C
As of 9:56 AM on Friday 19 Dec 2014 (Local Time) from KNRS Reporting Station
Scattered Clouds Scattered Clouds  
Wind Chill: 63°   Ceiling: Unl
Heat Index: 63°   Visibility: 10mi
Dew Point: 46°   Wind: 8mph
Humidity: 54%   Direction: 80°E
Pressure: 30.23"   Gusts: NA
Location:  32.58°N, 117.11°W
Report Text: KNRS 191756Z 08007KT 10SM FEW030 SCT250 17/08 A3023 RMK AO2 SLP237 T01720078 10172 20100 50003 $
Loading
Personal Weather Stations






























Interactive Weather Map New forecast layout! Learn more

10-Day Weather Forecast

Advertisements
Track Severe Weather on mobile